createdAt,value
2023-05-03T00:01:33.963Z,49.42
2023-05-03T00:04:33.956Z,49.21
2023-05-03T00:07:34.019Z,49.01
2023-05-03T00:10:36.214Z,48.81
2023-05-03T00:13:35.993Z,48.61
2023-05-03T00:16:36.050Z,48.60
2023-05-03T00:19:39.026Z,48.31
2023-05-03T00:22:40.075Z,48.21
2023-05-03T00:25:40.048Z,48.21
2023-05-03T00:28:40.098Z,48.18
2023-05-03T00:31:40.160Z,48.22
2023-05-03T00:34:40.059Z,48.29
2023-05-03T00:37:40.046Z,48.32
2023-05-03T00:40:40.032Z,48.40
2023-05-03T00:43:41.060Z,48.55
2023-05-03T00:46:41.074Z,48.57
2023-05-03T00:49:41.073Z,48.50
2023-05-03T00:52:41.097Z,48.36
2023-05-03T00:55:41.093Z,48.38
2023-05-03T00:58:46.052Z,48.41
2023-05-03T01:01:47.146Z,48.25
2023-05-03T01:04:48.170Z,48.27
2023-05-03T01:07:54.134Z,48.24
2023-05-03T01:11:02.090Z,48.18
2023-05-03T01:14:33.111Z,48.47
2023-05-03T01:17:33.132Z,48.74
2023-05-03T01:20:37.051Z,48.89
2023-05-03T01:23:59.135Z,49.16
2023-05-03T01:26:59.116Z,49.36
2023-05-03T01:29:59.119Z,49.58
2023-05-03T01:33:23.126Z,49.77
2023-05-03T01:36:25.148Z,49.85
2023-05-03T01:39:35.153Z,50.09
2023-05-03T01:42:37.161Z,50.21
2023-05-03T01:45:37.158Z,50.18
2023-05-03T01:48:38.153Z,50.46
2023-05-03T01:51:38.161Z,50.50
2023-05-03T01:54:38.116Z,50.64
2023-05-03T01:57:39.376Z,50.65
2023-05-03T02:00:39.156Z,50.62
2023-05-03T02:03:39.210Z,50.70
2023-05-03T02:06:39.282Z,50.84
2023-05-03T02:09:39.227Z,50.98
2023-05-03T02:12:39.254Z,51.15
2023-05-03T02:15:39.215Z,51.38
2023-05-03T02:18:39.155Z,51.68
2023-05-03T02:21:40.221Z,51.94
2023-05-03T02:24:42.211Z,51.96
2023-05-03T02:27:42.178Z,52.22
2023-05-03T02:30:42.340Z,52.40
2023-05-03T02:33:42.252Z,52.67
2023-05-03T02:36:43.226Z,52.80
2023-05-03T02:39:43.211Z,53.08
2023-05-03T02:42:43.224Z,53.34
2023-05-03T02:45:44.281Z,53.42
2023-05-03T02:48:44.235Z,53.87
2023-05-03T02:51:44.290Z,54.00
2023-05-03T02:54:44.336Z,54.30
2023-05-03T02:57:44.217Z,54.43
2023-05-03T03:00:44.253Z,54.59
2023-05-03T03:03:44.383Z,54.76
2023-05-03T03:06:44.364Z,54.86
2023-05-03T03:09:46.268Z,55.11
2023-05-03T03:12:48.268Z,55.15
2023-05-03T03:15:51.331Z,55.04
2023-05-03T03:18:51.279Z,55.15
2023-05-03T03:21:51.422Z,55.05
2023-05-03T03:24:52.310Z,55.10
2023-05-03T03:27:54.360Z,54.84
2023-05-03T03:30:55.281Z,54.80
2023-05-03T03:33:55.310Z,54.69
2023-05-03T03:36:56.383Z,54.74
2023-05-03T03:39:57.372Z,54.51
2023-05-03T03:43:01.341Z,54.25
2023-05-03T03:46:03.398Z,54.51
2023-05-03T03:49:03.557Z,54.36
2023-05-03T03:52:03.352Z,54.37
2023-05-03T03:55:03.396Z,54.37
2023-05-03T03:58:03.397Z,54.60
2023-05-03T04:01:03.443Z,54.50
2023-05-03T04:04:10.444Z,54.60
2023-05-03T04:07:11.426Z,54.63
2023-05-03T04:10:12.046Z,54.39
2023-05-03T04:13:12.434Z,54.14
2023-05-03T04:16:15.541Z,54.02
2023-05-03T04:19:15.718Z,54.13
2023-05-03T04:22:15.604Z,53.84
2023-05-03T04:25:15.426Z,53.89
2023-05-03T04:28:21.427Z,53.80
2023-05-03T04:31:21.434Z,53.62
2023-05-03T04:34:21.448Z,53.55
2023-05-03T04:37:21.518Z,53.20
2023-05-03T04:40:23.539Z,52.98
2023-05-03T04:43:31.421Z,52.65
2023-05-03T04:46:32.839Z,52.55
2023-05-03T04:49:32.454Z,52.27
2023-05-03T04:52:32.432Z,52.01
2023-05-03T04:55:32.471Z,51.72
2023-05-03T04:58:25.569Z,51.23
2023-05-03T05:01:25.515Z,51.12
2023-05-03T05:04:27.500Z,50.93
2023-05-03T05:07:27.666Z,50.54
2023-05-03T05:10:32.229Z,50.15
2023-05-03T05:13:32.505Z,50.07
2023-05-03T05:16:34.612Z,49.54
2023-05-03T05:19:35.534Z,48.84
2023-05-03T05:22:28.558Z,47.55
2023-05-03T05:25:28.689Z,46.22
2023-05-03T05:28:29.563Z,44.94
2023-05-03T05:31:30.573Z,43.72
2023-05-03T05:34:42.191Z,42.64
2023-05-03T05:37:45.529Z,41.45
2023-05-03T05:40:48.729Z,39.94
2023-05-03T05:43:49.567Z,38.87
2023-05-03T05:46:51.571Z,38.12
2023-05-03T05:49:51.541Z,36.96
2023-05-03T05:52:52.591Z,35.56
2023-05-03T05:55:56.825Z,35.08
2023-05-03T05:58:59.534Z,34.60
2023-05-03T06:01:59.632Z,35.11
2023-05-03T06:04:59.650Z,33.67
2023-05-03T06:07:59.695Z,33.02
2023-05-03T06:10:59.599Z,31.84
2023-05-03T06:13:59.640Z,31.00
2023-05-03T06:16:53.316Z,31.50
2023-05-03T06:19:55.610Z,31.45
2023-05-03T06:22:55.686Z,30.54
2023-05-03T06:25:55.649Z,30.13
2023-05-03T06:28:56.636Z,29.27
2023-05-03T06:31:56.671Z,28.67
2023-05-03T06:34:56.619Z,28.32
2023-05-03T06:37:56.663Z,27.91
2023-05-03T06:40:57.649Z,28.44
2023-05-03T06:43:57.700Z,28.32
2023-05-03T06:46:59.715Z,28.33
2023-05-03T06:49:59.782Z,28.41
2023-05-03T06:52:59.687Z,26.61
2023-05-03T06:55:59.749Z,26.32
2023-05-03T06:58:59.716Z,26.09
2023-05-03T07:01:59.827Z,26.41
2023-05-03T07:04:59.772Z,26.44
2023-05-03T07:08:04.587Z,25.02
2023-05-03T07:11:05.216Z,24.85
2023-05-03T07:14:08.715Z,24.52
2023-05-03T07:17:09.960Z,24.95
2023-05-03T07:20:10.736Z,24.84
2023-05-03T07:23:12.761Z,25.52
2023-05-03T07:26:12.742Z,25.27
2023-05-03T07:29:12.753Z,25.12
2023-05-03T07:32:12.755Z,24.97
2023-05-03T07:35:13.707Z,24.66
2023-05-03T07:38:13.741Z,24.74
2023-05-03T07:41:13.759Z,24.23
2023-05-03T07:44:14.757Z,24.36
2023-05-03T07:47:15.762Z,23.61
2023-05-03T07:50:16.860Z,22.91
2023-05-03T07:53:18.786Z,22.42
2023-05-03T07:56:18.782Z,22.38
2023-05-03T07:59:18.806Z,23.10
2023-05-03T08:02:18.983Z,23.06
2023-05-03T08:05:21.040Z,22.11
2023-05-03T08:08:21.857Z,21.78
2023-05-03T08:11:22.183Z,21.75
2023-05-03T08:14:21.862Z,21.34
2023-05-03T08:17:21.809Z,21.25
2023-05-03T08:20:22.937Z,21.80
2023-05-03T08:23:22.882Z,21.88
2023-05-03T08:26:22.836Z,22.79
2023-05-03T08:29:22.850Z,23.06
2023-05-03T08:32:15.846Z,23.44
2023-05-03T08:35:19.897Z,23.35
2023-05-03T08:38:21.845Z,23.91
2023-05-03T08:41:30.437Z,23.88
2023-05-03T08:44:38.857Z,24.01
2023-05-03T08:47:41.949Z,24.23
2023-05-03T08:50:47.932Z,23.92
2023-05-03T08:53:48.886Z,23.71
2023-05-03T08:57:06.871Z,23.85
2023-05-03T09:00:07.957Z,24.03
2023-05-03T09:03:08.130Z,24.06
2023-05-03T09:06:08.047Z,24.16
2023-05-03T09:09:08.053Z,24.19
2023-05-03T09:12:07.962Z,24.71
2023-05-03T09:15:08.910Z,24.48
2023-05-03T09:18:27.912Z,24.36
2023-05-03T09:21:31.963Z,24.23
2023-05-03T09:24:35.139Z,24.45
2023-05-03T09:27:34.938Z,24.40
2023-05-03T09:30:34.958Z,24.12
2023-05-03T09:33:41.967Z,24.30
2023-05-03T09:36:42.898Z,24.49
2023-05-03T09:39:44.971Z,23.59
2023-05-03T09:42:46.085Z,23.36
2023-05-03T09:45:47.011Z,23.50
2023-05-03T09:48:47.072Z,23.48
2023-05-03T09:51:48.005Z,23.27
2023-05-03T09:54:48.966Z,23.05
2023-05-03T09:57:52.025Z,22.78
2023-05-03T10:00:53.025Z,22.90
2023-05-03T10:03:56.033Z,22.66
2023-05-03T10:06:55.983Z,22.78
2023-05-03T10:09:56.058Z,22.55
2023-05-03T10:13:00.048Z,22.68
2023-05-03T10:16:00.289Z,22.88
2023-05-03T10:19:07.080Z,22.32
2023-05-03T10:22:22.112Z,22.66
2023-05-03T10:25:22.089Z,22.56
2023-05-03T10:28:22.045Z,22.67
2023-05-03T10:31:42.066Z,23.08
2023-05-03T10:34:46.532Z,23.01
2023-05-03T10:37:48.189Z,22.73
2023-05-03T10:40:55.499Z,23.00
2023-05-03T10:43:56.387Z,22.83
2023-05-03T10:46:58.876Z,22.89
2023-05-03T10:49:59.252Z,22.93
2023-05-03T10:53:01.130Z,22.92
2023-05-03T10:56:17.157Z,23.13
2023-05-03T10:59:18.193Z,23.21
2023-05-03T11:02:18.148Z,23.26
2023-05-03T11:05:20.269Z,22.94
2023-05-03T11:08:26.124Z,22.53
2023-05-03T11:11:27.202Z,22.78
2023-05-03T11:14:28.114Z,22.69
2023-05-03T11:17:28.170Z,22.76
2023-05-03T11:20:29.120Z,22.79
2023-05-03T11:23:30.160Z,23.30
2023-05-03T11:26:32.150Z,23.51
2023-05-03T11:29:32.386Z,22.88
2023-05-03T11:32:33.223Z,23.19
2023-05-03T11:35:33.193Z,23.47
2023-05-03T11:38:39.245Z,23.34
2023-05-03T11:41:39.197Z,23.45
2023-05-03T11:44:39.252Z,23.09
2023-05-03T11:47:39.178Z,23.34
2023-05-03T11:50:57.223Z,23.38
2023-05-03T11:53:57.188Z,23.50
2023-05-03T11:56:57.245Z,23.74
2023-05-03T11:59:57.243Z,23.89
2023-05-03T12:03:05.489Z,23.88
2023-05-03T12:06:06.695Z,24.37
2023-05-03T12:09:08.049Z,24.41
2023-05-03T12:12:10.996Z,24.66
2023-05-03T12:15:12.543Z,24.70
2023-05-03T12:18:14.865Z,24.91
2023-05-03T12:24:20.310Z,24.43
2023-05-03T12:27:24.060Z,24.61
2023-05-03T12:30:24.437Z,24.99
2023-05-03T12:33:28.189Z,24.98
2023-05-03T12:36:31.695Z,25.28
2023-05-03T12:39:32.957Z,25.68
2023-05-03T12:42:34.112Z,26.04
2023-05-03T12:45:38.314Z,26.08
2023-05-03T12:48:40.523Z,26.00
2023-05-03T12:51:42.693Z,25.65
2023-05-03T12:54:45.868Z,25.78
2023-05-03T12:58:14.301Z,25.41
2023-05-03T13:07:16.782Z,25.30
2023-05-03T13:13:18.408Z,25.18
2023-05-03T13:16:18.546Z,25.35
2023-05-03T13:19:20.455Z,25.06
2023-05-03T13:22:20.484Z,25.23
2023-05-03T13:25:20.483Z,25.40
2023-05-03T13:28:20.420Z,25.62
2023-05-03T13:31:20.411Z,26.07
2023-05-03T13:34:20.409Z,26.45
2023-05-03T13:37:24.529Z,26.46
2023-05-03T13:40:24.434Z,26.79
2023-05-03T13:43:25.002Z,27.01
2023-05-03T13:46:26.530Z,27.75
2023-05-03T13:49:27.520Z,27.72
2023-05-03T13:52:28.461Z,27.60
2023-05-03T13:55:28.571Z,27.91
2023-05-03T13:58:28.449Z,27.92
2023-05-03T14:01:28.888Z,28.14
2023-05-03T14:04:31.452Z,28.59
2023-05-03T14:07:37.486Z,28.78
2023-05-03T14:10:37.519Z,28.89
2023-05-03T14:13:51.591Z,29.73
2023-05-03T14:16:56.538Z,29.73
2023-05-03T14:20:03.868Z,29.92
2023-05-03T14:23:04.542Z,30.12
2023-05-03T14:26:04.507Z,30.32
2023-05-03T14:29:05.569Z,30.78
2023-05-03T14:32:05.531Z,31.14
2023-05-03T14:35:05.652Z,31.06
2023-05-03T14:38:05.583Z,31.65
2023-05-03T14:41:06.556Z,31.82
2023-05-03T14:44:06.545Z,31.80
2023-05-03T14:47:06.703Z,31.89
2023-05-03T14:50:06.951Z,32.03
2023-05-03T14:53:07.615Z,32.28
2023-05-03T14:56:07.732Z,32.54
2023-05-03T14:59:07.866Z,32.82
2023-05-03T15:02:10.156Z,32.97
2023-05-03T15:05:14.583Z,33.18
2023-05-03T15:08:15.946Z,32.83
2023-05-03T15:11:15.567Z,33.15
2023-05-03T15:14:15.602Z,33.27
2023-05-03T15:17:15.678Z,33.42
2023-05-03T15:20:16.630Z,33.28
2023-05-03T15:23:17.606Z,33.34
2023-05-03T15:26:19.627Z,33.71
2023-05-03T15:29:21.576Z,33.81
2023-05-03T15:32:21.644Z,33.69
2023-05-03T15:35:21.683Z,33.80
2023-05-03T15:38:21.661Z,33.99
2023-05-03T15:41:22.082Z,34.10
2023-05-03T15:44:22.772Z,34.36
2023-05-03T15:47:23.645Z,34.42
2023-05-03T15:50:23.709Z,34.63
2023-05-03T15:53:24.661Z,34.70
2023-05-03T15:56:24.750Z,34.80
2023-05-03T15:59:25.682Z,35.00
2023-05-03T16:02:25.724Z,34.98
2023-05-03T16:05:25.880Z,35.16
2023-05-03T16:08:26.660Z,35.21
2023-05-03T16:11:26.686Z,35.15
2023-05-03T16:14:27.866Z,35.34
2023-05-03T16:17:27.734Z,35.51
2023-05-03T16:20:27.695Z,35.69
2023-05-03T16:23:27.710Z,35.95
2023-05-03T16:26:27.749Z,36.00
2023-05-03T16:29:27.713Z,36.04
2023-05-03T16:32:28.764Z,36.47
2023-05-03T16:35:28.868Z,36.60
2023-05-03T16:38:29.745Z,36.84
2023-05-03T16:41:29.769Z,37.17
2023-05-03T16:44:30.751Z,37.49
2023-05-03T16:47:31.271Z,37.58
2023-05-03T16:50:32.770Z,37.68
2023-05-03T16:53:33.738Z,37.92
2023-05-03T16:56:36.912Z,38.06
2023-05-03T16:59:36.921Z,38.44
2023-05-03T17:02:39.101Z,38.73
2023-05-03T17:05:40.836Z,38.99
2023-05-03T17:08:40.827Z,39.33
2023-05-03T17:11:41.850Z,39.48
2023-05-03T17:14:41.828Z,39.60
2023-05-03T17:17:41.881Z,39.82
2023-05-03T17:20:42.120Z,40.14
2023-05-03T17:23:43.814Z,40.28
2023-05-03T17:26:44.970Z,40.69
2023-05-03T17:29:45.834Z,41.00
2023-05-03T17:32:46.874Z,41.03
2023-05-03T17:35:47.863Z,41.25
2023-05-03T17:38:47.815Z,41.37
2023-05-03T17:41:48.840Z,41.78
2023-05-03T17:44:49.839Z,42.09
2023-05-03T17:47:50.918Z,42.71
2023-05-03T17:50:52.874Z,43.84
2023-05-03T17:53:53.977Z,44.86
2023-05-03T17:56:55.832Z,46.84
2023-05-03T17:59:56.008Z,50.35
2023-05-03T18:02:58.981Z,52.64
2023-05-03T18:05:59.858Z,55.21
2023-05-03T18:09:04.091Z,57.11
2023-05-03T18:12:09.883Z,58.67
2023-05-03T18:15:12.027Z,60.39
2023-05-03T18:18:12.962Z,62.03
2023-05-03T18:21:13.109Z,63.80
2023-05-03T18:24:14.066Z,65.58
2023-05-03T18:27:16.090Z,67.18
2023-05-03T18:30:19.936Z,69.33
2023-05-03T18:33:21.141Z,70.48
2023-05-03T18:36:21.940Z,71.35
2023-05-03T18:39:22.022Z,71.72
2023-05-03T18:42:25.233Z,71.25
2023-05-03T18:45:26.992Z,70.02
2023-05-03T18:48:27.958Z,68.95
2023-05-03T18:51:28.330Z,68.19
2023-05-03T18:54:28.183Z,67.65
2023-05-03T18:57:29.050Z,67.61
2023-05-03T19:00:29.023Z,67.72
2023-05-03T19:03:30.996Z,67.73
2023-05-03T19:06:31.042Z,68.01
2023-05-03T19:09:30.993Z,68.10
2023-05-03T19:12:31.017Z,68.25
2023-05-03T19:15:31.186Z,68.85
2023-05-03T19:18:33.195Z,68.89
2023-05-03T19:21:35.123Z,69.61
2023-05-03T19:24:35.155Z,70.10
2023-05-03T19:27:38.207Z,70.84
2023-05-03T19:30:38.159Z,71.24
2023-05-03T19:33:38.068Z,71.52
2023-05-03T19:36:38.035Z,71.59
2023-05-03T19:39:41.196Z,71.66
2023-05-03T19:42:41.058Z,72.69
2023-05-03T19:45:41.045Z,72.99
2023-05-03T19:48:41.139Z,73.60
2023-05-03T19:51:41.134Z,73.86
2023-05-03T19:54:41.115Z,73.84
2023-05-03T19:57:41.222Z,74.45
2023-05-03T20:00:42.050Z,75.39
2023-05-03T20:03:42.292Z,75.39
2023-05-03T20:06:36.412Z,75.35
2023-05-03T20:09:36.195Z,75.77
2023-05-03T20:12:37.162Z,76.13
2023-05-03T20:15:37.156Z,76.19
2023-05-03T20:18:38.091Z,76.83
2023-05-03T20:21:38.180Z,76.92
2023-05-03T20:24:38.169Z,77.08
2023-05-03T20:27:38.152Z,77.59
2023-05-03T20:30:38.234Z,78.06
2023-05-03T20:33:39.315Z,78.11
2023-05-03T20:36:40.533Z,78.33
2023-05-03T20:39:41.369Z,78.72
2023-05-03T20:42:44.189Z,79.54
2023-05-03T20:45:44.361Z,80.44
2023-05-03T20:48:45.193Z,80.59
2023-05-03T20:51:45.201Z,81.15
2023-05-03T20:54:47.164Z,81.34
2023-05-03T20:57:47.239Z,81.98
2023-05-03T21:00:50.242Z,82.23
2023-05-03T21:03:50.194Z,82.61
2023-05-03T21:06:52.395Z,82.90
2023-05-03T21:09:52.198Z,83.28
2023-05-03T21:12:53.252Z,83.62
2023-05-03T21:15:54.317Z,84.17
2023-05-03T21:18:56.246Z,84.17
2023-05-03T21:21:57.142Z,84.40
2023-05-03T21:24:57.414Z,84.86
2023-05-03T21:27:57.289Z,84.85
2023-05-03T21:30:57.231Z,85.04
2023-05-03T21:33:57.596Z,85.18
2023-05-03T21:36:57.273Z,85.70
2023-05-03T21:40:02.442Z,85.92
2023-05-03T21:43:03.259Z,86.38
2023-05-03T21:46:03.342Z,86.77
2023-05-03T21:49:03.275Z,87.31
2023-05-03T21:52:03.273Z,87.80
2023-05-03T21:55:05.837Z,88.59
2023-05-03T21:58:06.309Z,89.20
2023-05-03T22:01:06.399Z,89.56
2023-05-03T22:04:06.461Z,89.99
2023-05-03T22:07:07.292Z,90.63
2023-05-03T22:10:08.371Z,90.83
2023-05-03T22:13:08.472Z,91.40
2023-05-03T22:16:08.412Z,91.67
2023-05-03T22:19:08.343Z,92.10
2023-05-03T22:22:08.337Z,92.58
2023-05-03T22:25:08.318Z,92.70
2023-05-03T22:28:09.361Z,93.16
2023-05-03T22:31:10.374Z,94.01
2023-05-03T22:34:14.609Z,94.77
2023-05-03T22:37:15.302Z,95.51
2023-05-03T22:40:15.378Z,96.05
2023-05-03T22:43:15.402Z,96.44
2023-05-03T22:46:16.414Z,96.87
2023-05-03T22:49:17.386Z,97.44
2023-05-03T22:52:17.430Z,97.68
2023-05-03T22:55:17.463Z,98.08
2023-05-03T22:58:17.447Z,98.29
2023-05-03T23:01:21.426Z,98.66
2023-05-03T23:04:21.385Z,99.02
2023-05-03T23:07:24.391Z,99.59
2023-05-03T23:10:25.403Z,99.95
2023-05-03T23:13:26.449Z,100.00
2023-05-03T23:16:26.471Z,100.00
2023-05-03T23:19:26.473Z,100.00
2023-05-03T23:22:26.438Z,100.00
2023-05-03T23:25:26.515Z,100.00
2023-05-03T23:28:26.506Z,100.00
2023-05-03T23:31:29.808Z,100.00
2023-05-03T23:34:34.457Z,100.00
2023-05-03T23:37:34.526Z,100.00
2023-05-03T23:40:34.536Z,100.00
2023-05-03T23:43:35.427Z,100.00
2023-05-03T23:46:35.712Z,100.00
2023-05-03T23:49:38.762Z,100.00
2023-05-03T23:52:38.542Z,100.00
2023-05-03T23:55:38.567Z,100.00
2023-05-03T23:58:38.565Z,100.00
